createdAt,value
2023-04-27T00:03:03.315Z,29.75
2023-04-27T00:06:04.086Z,30.09
2023-04-27T00:09:04.973Z,29.91
2023-04-27T00:12:15.060Z,29.61
2023-04-27T00:15:15.953Z,29.51
2023-04-27T00:18:17.003Z,29.32
2023-04-27T00:21:17.955Z,29.84
2023-04-27T00:24:19.000Z,29.98
2023-04-27T00:27:19.968Z,29.90
2023-04-27T00:30:21.045Z,29.96
2023-04-27T00:33:21.956Z,30.00
2023-04-27T00:36:23.011Z,29.83
2023-04-27T00:39:23.937Z,29.57
2023-04-27T00:42:26.051Z,29.99
2023-04-27T00:45:26.984Z,29.51
2023-04-27T00:48:28.024Z,29.90
2023-04-27T00:51:28.956Z,29.96
2023-04-27T00:54:32.004Z,29.81
2023-04-27T00:57:32.929Z,30.06
2023-04-27T01:00:33.963Z,29.93
2023-04-27T01:03:36.177Z,29.79
2023-04-27T01:06:36.969Z,29.75
2023-04-27T01:09:37.963Z,29.53
2023-04-27T01:12:39.091Z,29.52
2023-04-27T01:15:39.951Z,29.40
2023-04-27T01:18:41.977Z,29.47
2023-04-27T01:21:42.948Z,29.31
2023-04-27T01:24:43.970Z,29.12
2023-04-27T01:27:44.920Z,29.22
2023-04-27T01:30:45.968Z,29.08
2023-04-27T01:33:46.909Z,29.59
2023-04-27T01:36:47.969Z,29.59
2023-04-27T01:39:48.965Z,29.49
2023-04-27T01:42:49.997Z,29.31
2023-04-27T01:45:50.936Z,29.74
2023-04-27T01:48:51.997Z,29.53
2023-04-27T01:51:52.970Z,29.53
2023-04-27T01:54:54.006Z,29.72
2023-04-27T01:57:54.967Z,29.74
2023-04-27T02:00:56.059Z,29.51
2023-04-27T02:03:57.066Z,29.59
2023-04-27T02:06:58.007Z,29.77
2023-04-27T02:09:58.951Z,29.80
2023-04-27T02:13:00.099Z,29.78
2023-04-27T02:16:03.176Z,29.69
2023-04-27T02:19:03.983Z,29.81
2023-04-27T02:22:04.973Z,29.67
2023-04-27T02:25:06.001Z,29.73
2023-04-27T02:28:08.540Z,29.67
2023-04-27T02:31:09.991Z,29.66
2023-04-27T02:34:10.951Z,29.67
2023-04-27T02:37:11.979Z,29.78
2023-04-27T02:40:16.966Z,29.46
2023-04-27T02:43:17.993Z,29.28
2023-04-27T02:46:18.995Z,29.71
2023-04-27T02:49:21.023Z,29.41
2023-04-27T02:52:21.926Z,29.37
2023-04-27T02:55:22.976Z,29.73
2023-04-27T02:58:23.964Z,29.51
2023-04-27T03:01:25.058Z,29.36
2023-04-27T03:04:26.097Z,29.35
2023-04-27T03:07:26.990Z,29.40
2023-04-27T03:10:27.910Z,29.38
2023-04-27T03:13:29.042Z,29.87
2023-04-27T03:16:30.036Z,29.57
2023-04-27T03:19:30.977Z,29.53
2023-04-27T03:22:31.922Z,29.73
2023-04-27T03:25:33.003Z,29.65
2023-04-27T03:28:34.902Z,29.19
2023-04-27T03:31:36.013Z,29.82
2023-04-27T03:34:36.907Z,29.38
2023-04-27T03:37:37.973Z,29.48
2023-04-27T03:40:38.948Z,29.18
2023-04-27T03:43:39.951Z,29.53
2023-04-27T03:46:40.909Z,29.57
2023-04-27T03:49:41.946Z,29.54
2023-04-27T03:52:42.929Z,29.13
2023-04-27T03:55:43.965Z,29.53
2023-04-27T03:58:44.949Z,29.72
2023-04-27T04:01:48.019Z,29.81
2023-04-27T04:04:48.990Z,29.57
2023-04-27T04:07:49.958Z,29.93
2023-04-27T04:10:51.948Z,29.41
2023-04-27T04:13:53.119Z,29.82
2023-04-27T04:16:53.933Z,29.60
2023-04-27T04:19:54.963Z,29.84
2023-04-27T04:22:55.934Z,29.84
2023-04-27T04:25:56.987Z,29.84
2023-04-27T04:29:01.938Z,29.87
2023-04-27T04:32:02.962Z,29.46
2023-04-27T04:35:04.919Z,29.75
2023-04-27T04:38:05.954Z,29.73
2023-04-27T04:41:06.902Z,29.84
2023-04-27T04:44:07.972Z,29.77
2023-04-27T04:47:08.933Z,29.99
2023-04-27T04:50:11.008Z,29.89
2023-04-27T04:53:11.919Z,30.13
2023-04-27T04:56:22.036Z,29.83
2023-04-27T04:59:22.954Z,29.99
2023-04-27T05:02:25.179Z,29.87
2023-04-27T05:05:25.944Z,30.05
2023-04-27T05:08:26.973Z,29.92
2023-04-27T05:11:28.937Z,30.11
2023-04-27T05:14:30.134Z,29.82
2023-04-27T05:17:30.919Z,29.36
2023-04-27T05:20:31.960Z,29.67
2023-04-27T05:23:32.911Z,29.62
2023-04-27T05:26:33.945Z,29.85
2023-04-27T05:29:34.904Z,29.88
2023-04-27T05:32:35.964Z,29.90
2023-04-27T05:35:36.935Z,29.85
2023-04-27T05:38:37.950Z,29.48
2023-04-27T05:41:38.889Z,29.67
2023-04-27T05:44:39.971Z,29.69
2023-04-27T05:47:41.013Z,29.77
2023-04-27T05:50:41.969Z,29.63
2023-04-27T05:53:42.937Z,29.67
2023-04-27T05:56:43.958Z,29.54
2023-04-27T05:59:44.912Z,29.80
2023-04-27T06:02:46.028Z,29.79
2023-04-27T06:05:46.917Z,29.86
2023-04-27T06:08:47.945Z,29.59
2023-04-27T06:11:48.895Z,29.75
2023-04-27T06:14:50.134Z,29.63
2023-04-27T06:17:50.961Z,29.45
2023-04-27T06:20:51.948Z,29.54
2023-04-27T06:23:52.889Z,29.60
2023-04-27T06:26:53.948Z,29.66
2023-04-27T06:29:54.929Z,29.50
2023-04-27T06:32:55.975Z,29.68
2023-04-27T06:35:56.902Z,29.40
2023-04-27T06:38:57.918Z,29.26
2023-04-27T06:41:58.908Z,29.85
2023-04-27T06:44:59.939Z,29.53
2023-04-27T06:48:01.059Z,29.66
2023-04-27T06:51:01.934Z,29.86
2023-04-27T06:54:03.908Z,29.76
2023-04-27T06:57:04.943Z,29.71
2023-04-27T07:00:05.909Z,29.60
2023-04-27T07:03:07.094Z,29.86
2023-04-27T07:06:07.884Z,29.82
2023-04-27T07:09:20.179Z,29.96
2023-04-27T07:12:27.914Z,29.81
2023-04-27T07:15:29.105Z,30.22
2023-04-27T07:18:29.904Z,30.06
2023-04-27T07:21:30.998Z,29.91
2023-04-27T07:24:31.878Z,29.92
2023-04-27T07:27:32.958Z,30.02
2023-04-27T07:30:36.940Z,29.85
2023-04-27T07:33:37.937Z,29.95
2023-04-27T07:36:38.898Z,29.88
2023-04-27T07:39:39.926Z,30.12
2023-04-27T07:42:40.899Z,29.89
2023-04-27T07:45:44.988Z,30.21
2023-04-27T07:48:45.922Z,30.22
2023-04-27T07:51:46.911Z,29.95
2023-04-27T07:54:47.893Z,29.86
2023-04-27T07:57:48.918Z,29.68
2023-04-27T08:00:49.893Z,29.88
2023-04-27T08:03:51.096Z,29.78
2023-04-27T08:06:53.213Z,29.84
2023-04-27T08:09:54.928Z,30.17
2023-04-27T08:12:55.890Z,29.88
2023-04-27T08:15:57.160Z,29.92
2023-04-27T08:18:59.886Z,29.81
2023-04-27T08:22:00.960Z,29.95
2023-04-27T08:25:01.923Z,30.00
2023-04-27T08:28:02.911Z,29.90
2023-04-27T08:31:03.937Z,30.15
2023-04-27T08:34:05.919Z,30.16
2023-04-27T08:37:06.891Z,30.10
2023-04-27T08:40:07.944Z,30.21
2023-04-27T08:43:12.877Z,30.23
2023-04-27T08:46:13.983Z,30.28
2023-04-27T08:49:16.846Z,30.17
2023-04-27T08:52:18.915Z,30.23
2023-04-27T08:55:19.880Z,29.87
2023-04-27T08:58:20.928Z,30.58
2023-04-27T09:01:21.934Z,29.87
2023-04-27T09:04:23.149Z,30.27
2023-04-27T09:07:31.860Z,30.14
2023-04-27T09:10:32.959Z,30.17
2023-04-27T09:13:33.882Z,30.31
2023-04-27T09:16:38.134Z,30.12
2023-04-27T09:19:38.872Z,30.24
2023-04-27T09:22:39.923Z,30.29
2023-04-27T09:25:41.881Z,30.30
2023-04-27T09:28:42.927Z,30.14
2023-04-27T09:31:49.946Z,30.24
2023-04-27T09:34:53.912Z,30.41
2023-04-27T09:37:54.893Z,30.46
2023-04-27T09:40:55.915Z,30.05
2023-04-27T09:43:57.991Z,30.17
2023-04-27T09:46:59.924Z,30.32
2023-04-27T09:50:00.879Z,30.23
2023-04-27T09:53:01.915Z,30.36
2023-04-27T09:56:02.896Z,30.29
2023-04-27T09:59:03.942Z,30.35
2023-04-27T10:02:24.033Z,30.35
2023-04-27T10:05:26.019Z,30.50
2023-04-27T10:08:26.906Z,30.32
2023-04-27T10:11:27.911Z,30.21
2023-04-27T10:14:35.880Z,30.54
2023-04-27T10:17:39.037Z,30.14
2023-04-27T10:20:42.852Z,30.18
2023-04-27T10:23:43.944Z,30.05
2023-04-27T10:26:44.892Z,29.90
2023-04-27T10:29:49.926Z,30.31
2023-04-27T10:32:50.911Z,30.23
2023-04-27T10:35:55.998Z,30.31
2023-04-27T10:38:56.880Z,29.96
2023-04-27T10:42:07.932Z,30.04
2023-04-27T10:45:10.880Z,30.09
2023-04-27T10:48:12.966Z,30.08
2023-04-27T10:51:14.875Z,29.91
2023-04-27T10:54:15.927Z,30.17
2023-04-27T10:57:17.863Z,30.39
2023-04-27T11:00:20.924Z,30.00
2023-04-27T11:03:28.903Z,30.27
2023-04-27T11:06:29.888Z,30.19
2023-04-27T11:09:39.904Z,30.33
2023-04-27T11:12:40.925Z,30.24
2023-04-27T11:15:42.092Z,30.24
2023-04-27T11:18:46.001Z,30.42
2023-04-27T11:21:46.875Z,30.28
2023-04-27T11:24:47.969Z,30.11
2023-04-27T11:27:51.853Z,30.02
2023-04-27T11:30:52.926Z,30.08
2023-04-27T11:34:00.875Z,30.03
2023-04-27T11:37:18.840Z,30.32
2023-04-27T11:40:22.005Z,30.20
2023-04-27T11:43:27.897Z,30.07
2023-04-27T11:46:28.894Z,30.06
2023-04-27T11:49:29.904Z,30.02
2023-04-27T11:52:30.875Z,30.03
2023-04-27T11:55:33.915Z,30.05
2023-04-27T11:58:34.883Z,30.24
2023-04-27T12:01:38.157Z,30.03
2023-04-27T12:04:38.938Z,30.22
2023-04-27T12:07:39.918Z,29.89
2023-04-27T12:10:40.877Z,30.19
2023-04-27T12:13:41.899Z,29.86
2023-04-27T12:16:42.927Z,30.06
2023-04-27T12:19:43.952Z,30.28
2023-04-27T12:22:44.876Z,30.04
2023-04-27T12:25:47.918Z,30.18
2023-04-27T12:28:48.873Z,30.24
2023-04-27T12:31:49.920Z,30.39
2023-04-27T12:34:50.853Z,30.03
2023-04-27T12:37:52.000Z,30.01
2023-04-27T12:40:52.854Z,30.13
2023-04-27T12:43:54.884Z,30.12
2023-04-27T12:46:55.856Z,30.36
2023-04-27T12:49:57.885Z,29.99
2023-04-27T12:52:58.861Z,29.98
2023-04-27T12:55:59.881Z,30.32
2023-04-27T12:59:00.870Z,30.18
2023-04-27T13:02:02.014Z,30.28
2023-04-27T13:05:02.977Z,29.99
2023-04-27T13:08:03.879Z,30.23
2023-04-27T13:11:04.885Z,30.36
2023-04-27T13:14:05.888Z,30.17
2023-04-27T13:17:06.849Z,30.30
2023-04-27T13:20:07.976Z,30.40
2023-04-27T13:23:08.844Z,30.00
2023-04-27T13:26:09.921Z,30.04
2023-04-27T13:29:10.851Z,30.19
2023-04-27T13:32:11.906Z,30.05
2023-04-27T13:35:12.828Z,29.54
2023-04-27T13:38:13.895Z,30.17
2023-04-27T13:41:14.868Z,30.57
2023-04-27T13:44:16.164Z,30.25
2023-04-27T13:47:16.827Z,30.07
2023-04-27T13:50:20.916Z,30.29
2023-04-27T13:53:22.817Z,30.02
2023-04-27T13:56:23.892Z,30.01
2023-04-27T13:59:24.819Z,30.33
2023-04-27T14:02:25.916Z,30.32
2023-04-27T14:05:26.830Z,29.95
2023-04-27T14:08:27.858Z,30.07
2023-04-27T14:11:29.855Z,30.29
2023-04-27T14:14:30.883Z,30.35
2023-04-27T14:17:31.915Z,29.99
2023-04-27T14:20:35.130Z,29.60
2023-04-27T14:23:35.851Z,30.14
2023-04-27T14:26:36.883Z,30.00
2023-04-27T14:29:37.842Z,29.92
2023-04-27T14:32:39.012Z,30.09
2023-04-27T14:35:39.870Z,29.78
2023-04-27T14:38:40.860Z,29.99
2023-04-27T14:41:42.821Z,29.97
2023-04-27T14:44:43.870Z,30.03
2023-04-27T14:47:44.900Z,30.13
2023-04-27T14:50:45.890Z,30.25
2023-04-27T14:53:46.844Z,30.05
2023-04-27T14:56:47.874Z,30.06
2023-04-27T14:59:48.845Z,29.86
2023-04-27T15:02:51.003Z,30.13
2023-04-27T15:05:51.814Z,29.85
2023-04-27T15:08:52.898Z,30.03
2023-04-27T15:11:53.847Z,29.88
2023-04-27T15:14:56.897Z,30.12
2023-04-27T15:17:57.862Z,30.34
2023-04-27T15:21:03.096Z,29.89
2023-04-27T15:24:03.826Z,29.92
2023-04-27T15:27:04.877Z,29.84
2023-04-27T15:30:10.837Z,30.03
2023-04-27T15:33:11.909Z,29.83
2023-04-27T15:36:12.836Z,30.08
2023-04-27T15:39:14.145Z,30.13
2023-04-27T15:42:14.834Z,29.96
2023-04-27T15:45:15.870Z,29.93
2023-04-27T15:48:16.845Z,30.14
2023-04-27T15:51:17.876Z,30.06
2023-04-27T15:54:18.851Z,29.95
2023-04-27T15:57:19.877Z,29.82
2023-04-27T16:00:22.907Z,29.90
2023-04-27T16:03:23.933Z,29.75
2023-04-27T16:06:24.819Z,29.79
2023-04-27T16:09:25.905Z,29.90
2023-04-27T16:12:26.796Z,29.83
2023-04-27T16:15:27.861Z,30.09
2023-04-27T16:18:28.817Z,30.05
2023-04-27T16:21:30.070Z,30.04
2023-04-27T16:24:30.812Z,30.00
2023-04-27T16:27:31.849Z,30.12
2023-04-27T16:30:32.824Z,30.02
2023-04-27T16:33:33.867Z,29.95
2023-04-27T16:36:34.821Z,30.15
2023-04-27T16:39:35.874Z,30.36
2023-04-27T16:42:36.797Z,30.19
2023-04-27T16:45:37.865Z,30.18
2023-04-27T16:48:38.812Z,30.22
2023-04-27T16:51:39.858Z,30.30
2023-04-27T16:54:40.819Z,30.11
2023-04-27T16:57:41.848Z,30.34
2023-04-27T17:00:42.868Z,30.17
2023-04-27T17:03:44.051Z,30.01
2023-04-27T17:06:44.803Z,30.40
2023-04-27T17:09:45.868Z,30.03
2023-04-27T17:12:46.847Z,29.91
2023-04-27T17:15:47.908Z,29.81
2023-04-27T17:18:49.820Z,30.03
2023-04-27T17:21:51.047Z,30.02
2023-04-27T17:24:51.814Z,30.19
2023-04-27T17:27:52.847Z,30.17
2023-04-27T17:30:53.859Z,30.05
2023-04-27T17:33:54.867Z,30.29
2023-04-27T17:36:55.783Z,30.25
2023-04-27T17:40:00.919Z,30.04
2023-04-27T17:43:02.818Z,30.14
2023-04-27T17:46:03.905Z,30.11
2023-04-27T17:49:04.838Z,29.81
2023-04-27T17:52:05.853Z,29.92
2023-04-27T17:55:06.793Z,30.27
2023-04-27T17:58:09.839Z,29.99
2023-04-27T18:01:10.815Z,30.09
2023-04-27T18:04:13.022Z,30.09
2023-04-27T18:07:13.795Z,30.18
2023-04-27T18:10:14.868Z,30.20
2023-04-27T18:13:15.797Z,30.23
2023-04-27T18:16:16.879Z,30.39
2023-04-27T18:19:17.799Z,30.09
2023-04-27T18:22:18.893Z,30.04
2023-04-27T18:25:19.816Z,29.97
2023-04-27T18:28:20.853Z,30.05
2023-04-27T18:31:30.831Z,29.79
2023-04-27T18:34:31.838Z,30.13
2023-04-27T18:37:32.836Z,29.87
2023-04-27T18:40:34.884Z,30.09
2023-04-27T18:43:35.825Z,29.86
2023-04-27T18:46:36.824Z,29.98
2023-04-27T18:49:37.826Z,29.85
2023-04-27T18:52:38.849Z,29.77
2023-04-27T18:55:39.803Z,30.06
2023-04-27T18:58:40.853Z,29.70
2023-04-27T19:01:42.837Z,30.14
2023-04-27T19:04:52.812Z,29.87
2023-04-27T19:07:57.785Z,29.31
2023-04-27T19:11:00.261Z,30.05
2023-04-27T19:14:00.823Z,29.91
2023-04-27T19:17:02.068Z,29.72
2023-04-27T19:20:02.846Z,29.49
2023-04-27T19:23:03.910Z,30.07
2023-04-27T19:29:08.836Z,29.86
2023-04-27T19:32:09.797Z,30.11
2023-04-27T19:35:11.701Z,29.87
2023-04-27T19:38:12.796Z,30.27
2023-04-27T19:41:13.847Z,30.19
2023-04-27T19:44:15.036Z,30.03
2023-04-27T19:47:17.826Z,29.92
2023-04-27T19:50:18.857Z,29.92
2023-04-27T19:53:19.839Z,29.69
2023-04-27T19:56:20.805Z,30.04
2023-04-27T19:59:21.810Z,29.79
2023-04-27T20:02:22.909Z,29.82
2023-04-27T20:05:24.101Z,29.61
2023-04-27T20:08:24.783Z,29.93
2023-04-27T20:11:25.841Z,29.55
2023-04-27T20:14:26.771Z,29.82
2023-04-27T20:17:27.865Z,30.03
2023-04-27T20:20:28.771Z,29.69
2023-04-27T20:23:29.964Z,29.74
2023-04-27T20:26:30.772Z,29.90
2023-04-27T20:29:31.829Z,29.79
2023-04-27T20:32:32.798Z,30.09
2023-04-27T20:35:33.824Z,29.77
2023-04-27T20:38:34.780Z,29.90
2023-04-27T20:41:35.842Z,29.86
2023-04-27T20:44:36.804Z,29.82
2023-04-27T20:47:37.900Z,29.50
2023-04-27T20:50:38.789Z,29.66
2023-04-27T20:53:39.853Z,29.72
2023-04-27T20:56:40.766Z,29.68
2023-04-27T20:59:41.857Z,29.58
2023-04-27T21:02:42.879Z,29.65
2023-04-27T21:05:43.824Z,29.55
2023-04-27T21:08:44.793Z,29.63
2023-04-27T21:11:45.818Z,29.89
2023-04-27T21:14:46.803Z,29.85
2023-04-27T21:17:47.900Z,30.01
2023-04-27T21:20:48.777Z,29.72
2023-04-27T21:23:57.163Z,30.08
2023-04-27T21:27:04.765Z,30.15
2023-04-27T21:30:05.839Z,29.90
2023-04-27T21:33:06.807Z,29.74
2023-04-27T21:36:07.813Z,29.92
2023-04-27T21:39:08.784Z,29.98
2023-04-27T21:42:09.869Z,29.81
2023-04-27T21:45:10.857Z,29.71
2023-04-27T21:48:11.818Z,29.95
2023-04-27T21:51:12.757Z,30.05
2023-04-27T21:54:14.114Z,29.67
2023-04-27T21:57:14.758Z,30.06
2023-04-27T22:00:19.830Z,30.19
2023-04-27T22:03:20.868Z,29.90
2023-04-27T22:06:21.833Z,29.95
2023-04-27T22:09:22.765Z,29.85
2023-04-27T22:12:23.821Z,29.91
2023-04-27T22:15:26.762Z,29.50
2023-04-27T22:18:27.842Z,30.00
2023-04-27T22:21:28.774Z,29.70
2023-04-27T22:24:30.025Z,29.90
2023-04-27T22:27:41.875Z,30.10
2023-04-27T22:30:44.840Z,29.89
2023-04-27T22:33:45.792Z,29.94
2023-04-27T22:36:46.804Z,30.08
2023-04-27T22:39:47.783Z,30.06
2023-04-27T22:42:48.800Z,30.36
2023-04-27T22:45:49.797Z,29.95
2023-04-27T22:48:51.833Z,29.85
2023-04-27T22:51:53.813Z,30.10
2023-04-27T22:54:54.823Z,30.35
2023-04-27T22:57:56.758Z,29.86
2023-04-27T23:00:57.820Z,29.95
2023-04-27T23:03:58.927Z,29.96
2023-04-27T23:06:59.830Z,30.19
2023-04-27T23:10:01.784Z,29.98
2023-04-27T23:13:03.810Z,29.88
2023-04-27T23:16:04.761Z,29.98
2023-04-27T23:19:05.816Z,29.91
2023-04-27T23:22:06.752Z,29.73
2023-04-27T23:25:07.896Z,29.89
2023-04-27T23:28:08.794Z,29.69
2023-04-27T23:31:09.886Z,30.04
2023-04-27T23:34:10.750Z,29.84
2023-04-27T23:37:11.839Z,29.76
2023-04-27T23:40:12.757Z,29.83
2023-04-27T23:43:13.826Z,29.66
2023-04-27T23:46:14.853Z,29.51
2023-04-27T23:49:15.827Z,30.03
2023-04-27T23:52:16.756Z,30.04
2023-04-27T23:55:17.811Z,29.93
2023-04-27T23:58:18.768Z,29.86
